createdAt,value
2018-05-29T00:01:16.025Z,23.00
2018-05-29T00:05:09.201Z,23.00
2018-05-29T00:09:02.318Z,23.00
2018-05-29T00:12:55.413Z,23.00
2018-05-29T00:16:48.536Z,22.80
2018-05-29T00:20:41.646Z,22.80
2018-05-29T00:24:34.805Z,22.80
2018-05-29T00:28:28.516Z,22.80
2018-05-29T00:32:21.677Z,22.80
2018-05-29T00:36:14.808Z,22.80
2018-05-29T00:40:07.919Z,22.80
2018-05-29T00:44:01.178Z,22.70
2018-05-29T00:47:54.296Z,22.70
2018-05-29T00:51:47.407Z,22.60
2018-05-29T00:55:40.602Z,22.50
2018-05-29T00:59:33.733Z,22.40
2018-05-29T01:03:26.611Z,22.40
2018-05-29T01:07:19.747Z,22.40
2018-05-29T01:11:12.868Z,22.40
2018-05-29T01:15:06.786Z,22.30
2018-05-29T01:18:59.927Z,22.20
2018-05-29T01:22:53.121Z,22.10
2018-05-29T01:26:46.269Z,22.00
2018-05-29T01:30:40.142Z,21.90
2018-05-29T01:34:34.075Z,21.80
2018-05-29T01:38:27.202Z,21.80
2018-05-29T01:42:20.323Z,21.70
2018-05-29T01:46:13.441Z,21.70
2018-05-29T01:50:06.557Z,21.70
2018-05-29T01:53:59.679Z,21.60
2018-05-29T01:57:52.562Z,21.70
2018-05-29T02:01:49.623Z,21.60
2018-05-29T02:05:42.756Z,21.60
2018-05-29T02:09:35.942Z,21.50
2018-05-29T02:13:29.120Z,21.60
2018-05-29T02:17:22.275Z,21.50
2018-05-29T02:21:15.418Z,21.50
2018-05-29T02:25:08.552Z,21.50
2018-05-29T02:29:02.439Z,21.40
2018-05-29T02:32:55.567Z,21.40
2018-05-29T02:36:48.726Z,21.40
2018-05-29T02:40:41.880Z,21.40
2018-05-29T02:44:35.849Z,21.30
2018-05-29T02:48:28.976Z,21.30
2018-05-29T02:52:22.844Z,21.10
2018-05-29T02:56:16.770Z,21.10
2018-05-29T03:00:09.670Z,21.10
2018-05-29T03:04:02.827Z,21.00
2018-05-29T03:07:55.937Z,21.00
2018-05-29T03:11:49.064Z,21.00
2018-05-29T03:15:42.300Z,21.00
2018-05-29T03:19:35.406Z,21.00
2018-05-29T03:23:28.514Z,21.00
2018-05-29T03:27:21.669Z,21.00
2018-05-29T03:31:14.794Z,20.90
2018-05-29T03:35:08.695Z,21.00
2018-05-29T03:39:01.797Z,20.90
2018-05-29T03:42:54.935Z,20.90
2018-05-29T03:46:48.049Z,20.80
2018-05-29T03:50:41.227Z,20.80
2018-05-29T03:54:34.343Z,20.80
2018-05-29T03:58:28.091Z,20.80
2018-05-29T04:02:21.996Z,20.90
2018-05-29T04:06:15.112Z,20.90
2018-05-29T04:10:08.261Z,21.00
2018-05-29T04:14:01.491Z,21.00
2018-05-29T04:17:54.602Z,21.20
2018-05-29T04:21:47.761Z,21.20
2018-05-29T04:25:41.559Z,21.20
2018-05-29T04:29:34.723Z,21.30
2018-05-29T04:33:27.948Z,21.40
2018-05-29T04:37:21.299Z,21.50
2018-05-29T04:41:15.227Z,23.70
2018-05-29T04:45:08.348Z,23.70
2018-05-29T04:49:01.526Z,24.60
2018-05-29T04:52:55.783Z,26.30
2018-05-29T04:56:48.999Z,26.20
2018-05-29T05:00:41.867Z,26.60
2018-05-29T05:04:35.526Z,26.60
2018-05-29T05:08:28.751Z,26.10
2018-05-29T05:12:21.923Z,25.40
2018-05-29T05:16:16.006Z,24.50
2018-05-29T05:20:09.938Z,24.30
2018-05-29T05:24:03.055Z,24.20
2018-05-29T05:27:56.203Z,24.20
2018-05-29T05:31:50.097Z,24.70
2018-05-29T05:35:43.295Z,24.70
2018-05-29T05:39:40.233Z,25.00
2018-05-29T05:43:33.352Z,25.40
2018-05-29T05:47:26.491Z,25.70
2018-05-29T05:51:19.610Z,25.80
2018-05-29T05:55:12.897Z,25.60
2018-05-29T05:59:05.995Z,25.30
2018-05-29T06:02:59.159Z,25.00
2018-05-29T06:06:52.277Z,24.90
2018-05-29T06:10:45.413Z,25.10
2018-05-29T06:14:38.528Z,25.30
2018-05-29T06:18:31.715Z,25.50
2018-05-29T06:22:24.910Z,25.70
2018-05-29T06:26:18.793Z,26.00
2018-05-29T06:30:11.936Z,26.00
2018-05-29T06:34:05.057Z,26.00
2018-05-29T06:37:58.259Z,25.90
2018-05-29T06:41:51.368Z,25.80
2018-05-29T06:45:45.387Z,25.70
2018-05-29T06:49:38.532Z,25.70
2018-05-29T06:53:32.491Z,25.80
2018-05-29T06:57:25.609Z,25.80
2018-05-29T07:01:18.752Z,25.80
2018-05-29T07:05:13.176Z,25.90
2018-05-29T07:09:06.385Z,25.90
2018-05-29T07:13:00.264Z,26.10
2018-05-29T07:16:53.444Z,26.10
2018-05-29T07:20:47.377Z,26.40
2018-05-29T07:24:40.582Z,26.40
2018-05-29T07:28:33.660Z,26.30
2018-05-29T07:32:26.832Z,26.30
2018-05-29T07:36:20.144Z,26.30
2018-05-29T07:40:14.117Z,26.50
2018-05-29T07:44:07.257Z,26.50
2018-05-29T07:48:00.387Z,26.50
2018-05-29T07:51:54.726Z,26.70
2018-05-29T07:55:47.813Z,26.70
2018-05-29T07:59:40.953Z,26.80
2018-05-29T08:03:34.077Z,26.90
2018-05-29T08:07:27.998Z,27.20
2018-05-29T08:11:21.134Z,27.20
2018-05-29T08:15:17.307Z,27.30
2018-05-29T08:19:10.432Z,27.30
2018-05-29T08:23:03.618Z,27.50
2018-05-29T08:26:58.261Z,27.60
2018-05-29T08:30:51.660Z,27.60
2018-05-29T08:34:45.657Z,27.80
2018-05-29T08:38:38.835Z,27.80
2018-05-29T08:42:32.002Z,27.80
2018-05-29T08:46:25.134Z,27.90
2018-05-29T08:50:18.212Z,28.00
2018-05-29T08:54:11.328Z,27.90
2018-05-29T08:58:04.455Z,28.00
2018-05-29T09:01:57.613Z,28.00
2018-05-29T09:05:50.786Z,28.20
2018-05-29T09:09:43.974Z,28.20
2018-05-29T09:13:37.109Z,28.20
2018-05-29T09:17:30.213Z,28.30
2018-05-29T09:21:23.354Z,28.40
2018-05-29T09:25:16.591Z,28.50
2018-05-29T09:29:09.732Z,28.60
2018-05-29T09:33:02.857Z,28.70
2018-05-29T09:36:56.121Z,28.60
2018-05-29T09:40:49.241Z,28.60
2018-05-29T09:44:43.125Z,28.80
2018-05-29T09:48:36.236Z,28.70
2018-05-29T09:52:29.379Z,29.00
2018-05-29T09:56:23.622Z,28.90
2018-05-29T10:00:22.123Z,29.00
2018-05-29T10:04:16.060Z,29.10
2018-05-29T10:08:09.225Z,29.10
2018-05-29T10:12:02.330Z,29.10
2018-05-29T10:15:56.419Z,29.30
2018-05-29T10:19:50.323Z,29.30
2018-05-29T10:23:43.476Z,29.20
2018-05-29T10:27:36.594Z,29.20
2018-05-29T10:31:29.764Z,29.20
2018-05-29T10:35:23.014Z,29.30
2018-05-29T10:39:21.456Z,29.60
2018-05-29T10:43:14.639Z,29.60
2018-05-29T10:47:08.217Z,29.80
2018-05-29T10:51:02.080Z,29.90
2018-05-29T10:54:56.085Z,30.20
2018-05-29T10:58:50.541Z,30.30
2018-05-29T11:02:44.640Z,30.30
2018-05-29T11:06:37.763Z,30.50
2018-05-29T11:10:30.966Z,30.40
2018-05-29T11:14:24.910Z,30.80
2018-05-29T11:18:18.026Z,30.90
2018-05-29T11:22:11.166Z,30.80
2018-05-29T11:26:04.319Z,30.50
2018-05-29T11:29:57.462Z,30.40
2018-05-29T11:33:51.022Z,30.50
2018-05-29T11:37:44.117Z,30.50
2018-05-29T11:41:37.259Z,30.50
2018-05-29T11:45:30.456Z,30.60
2018-05-29T11:49:23.654Z,30.70
2018-05-29T11:53:16.941Z,30.80
2018-05-29T11:57:10.832Z,31.00
2018-05-29T12:01:03.945Z,31.00
2018-05-29T12:04:57.108Z,31.00
2018-05-29T12:08:50.226Z,30.30
2018-05-29T12:12:43.343Z,30.40
2018-05-29T12:16:37.247Z,31.20
2018-05-29T12:20:31.128Z,31.10
2018-05-29T12:24:24.251Z,31.10
2018-05-29T12:28:17.442Z,31.00
2018-05-29T12:32:10.597Z,30.40
2018-05-29T12:36:03.774Z,30.30
2018-05-29T12:39:56.893Z,30.40
2018-05-29T12:43:50.185Z,30.70
2018-05-29T12:47:43.417Z,30.80
2018-05-29T12:51:36.533Z,30.90
2018-05-29T12:55:29.665Z,31.20
2018-05-29T12:59:23.037Z,31.30
2018-05-29T13:03:16.247Z,31.20
2018-05-29T13:07:09.402Z,31.60
2018-05-29T13:11:02.568Z,31.40
2018-05-29T13:14:55.704Z,32.20
2018-05-29T13:18:48.853Z,32.60
2018-05-29T13:22:41.960Z,32.30
2018-05-29T13:26:35.899Z,32.10
2018-05-29T13:30:29.053Z,32.10
2018-05-29T13:34:22.182Z,32.50
2018-05-29T13:38:15.305Z,31.90
2018-05-29T13:42:09.260Z,32.30
2018-05-29T13:46:02.551Z,32.40
2018-05-29T13:49:57.135Z,31.80
2018-05-29T13:53:50.261Z,31.80
2018-05-29T13:57:45.431Z,31.20
2018-05-29T14:01:38.607Z,31.20
2018-05-29T14:05:32.809Z,30.90
2018-05-29T14:09:25.930Z,30.50
2018-05-29T14:13:19.100Z,30.20
2018-05-29T14:17:12.260Z,29.90
2018-05-29T14:21:05.419Z,29.40
2018-05-29T14:24:58.625Z,28.50
2018-05-29T14:28:51.823Z,28.00
2018-05-29T14:32:45.829Z,27.70
2018-05-29T14:36:38.949Z,27.40
2018-05-29T14:40:32.082Z,26.80
2018-05-29T14:44:25.454Z,26.30
2018-05-29T14:48:18.628Z,25.90
2018-05-29T14:52:11.867Z,25.80
2018-05-29T14:56:05.174Z,25.60
2018-05-29T14:59:58.622Z,25.10
2018-05-29T15:03:51.806Z,24.60
2018-05-29T15:07:45.097Z,24.20
2018-05-29T15:11:38.192Z,24.20
2018-05-29T15:15:31.356Z,24.00
2018-05-29T15:19:24.527Z,23.70
2018-05-29T15:23:17.624Z,23.30
2018-05-29T15:27:10.816Z,23.00
2018-05-29T15:31:04.011Z,22.70
2018-05-29T15:34:57.868Z,21.90
2018-05-29T15:38:50.981Z,21.90
2018-05-29T15:42:44.119Z,21.80
2018-05-29T15:46:37.367Z,21.70
2018-05-29T15:50:30.560Z,21.60
2018-05-29T15:54:23.667Z,21.50
2018-05-29T15:58:16.830Z,21.40
2018-05-29T16:02:09.939Z,21.30
2018-05-29T16:06:03.049Z,21.30
2018-05-29T16:09:56.212Z,21.50
2018-05-29T16:13:49.409Z,21.60
2018-05-29T16:17:42.538Z,21.50
2018-05-29T16:21:35.659Z,21.40
2018-05-29T16:25:29.560Z,21.40
2018-05-29T16:29:22.725Z,21.40
2018-05-29T16:33:15.850Z,21.40
2018-05-29T16:37:08.984Z,21.20
2018-05-29T16:41:02.108Z,21.20
2018-05-29T16:44:55.246Z,21.10
2018-05-29T16:48:48.414Z,21.10
2018-05-29T16:52:41.520Z,21.00
2018-05-29T16:56:34.754Z,21.10
2018-05-29T17:00:28.059Z,21.10
2018-05-29T17:04:21.174Z,21.00
2018-05-29T17:08:15.060Z,21.20
2018-05-29T17:12:08.939Z,21.30
2018-05-29T17:16:02.126Z,21.20
2018-05-29T17:19:55.259Z,21.20
2018-05-29T17:23:48.379Z,21.00
2018-05-29T17:27:41.496Z,20.90
2018-05-29T17:31:35.414Z,20.80
2018-05-29T17:35:28.543Z,20.70
2018-05-29T17:39:21.690Z,20.70
2018-05-29T17:43:14.908Z,20.80
2018-05-29T17:47:08.026Z,20.80
2018-05-29T17:51:01.233Z,20.70
2018-05-29T17:54:54.342Z,20.70
2018-05-29T17:58:47.484Z,20.70
2018-05-29T18:02:40.632Z,20.80
2018-05-29T18:06:33.772Z,20.80
2018-05-29T18:10:27.002Z,20.80
2018-05-29T18:14:20.099Z,20.90
2018-05-29T18:18:13.230Z,20.90
2018-05-29T18:22:06.360Z,20.80
2018-05-29T18:25:59.505Z,20.90
2018-05-29T18:29:52.655Z,20.90
2018-05-29T18:33:46.532Z,21.00
2018-05-29T18:37:40.425Z,21.00
2018-05-29T18:41:33.586Z,20.90
2018-05-29T18:45:26.733Z,21.00
2018-05-29T18:49:19.903Z,21.00
2018-05-29T18:53:13.074Z,21.10
2018-05-29T18:57:06.198Z,21.00
2018-05-29T19:00:59.300Z,21.10
2018-05-29T19:04:52.477Z,21.00
2018-05-29T19:08:46.391Z,20.90
2018-05-29T19:12:39.600Z,20.90
2018-05-29T19:16:32.723Z,20.90
2018-05-29T19:20:26.611Z,20.80
2018-05-29T19:24:19.743Z,20.80
2018-05-29T19:28:12.867Z,20.90
2018-05-29T19:32:06.004Z,21.00
2018-05-29T19:35:59.366Z,21.00
2018-05-29T19:39:52.478Z,21.00
2018-05-29T19:43:45.894Z,21.00
2018-05-29T19:47:39.166Z,21.00
2018-05-29T19:51:32.295Z,20.90
2018-05-29T19:55:26.194Z,20.80
2018-05-29T19:59:19.477Z,20.80
2018-05-29T20:03:12.572Z,20.80
2018-05-29T20:07:05.700Z,20.80
2018-05-29T20:10:58.901Z,20.80
2018-05-29T20:14:52.083Z,20.70
2018-05-29T20:18:45.263Z,20.90
2018-05-29T20:22:38.449Z,21.00
2018-05-29T20:26:32.463Z,20.90
2018-05-29T20:30:25.618Z,20.90
2018-05-29T20:34:18.762Z,20.90
2018-05-29T20:38:12.008Z,20.80
2018-05-29T20:42:05.135Z,20.90
2018-05-29T20:45:59.474Z,20.80
2018-05-29T20:49:52.827Z,20.80
2018-05-29T20:53:59.957Z,20.90
2018-05-29T20:57:55.537Z,20.80
2018-05-29T21:01:48.716Z,20.80
2018-05-29T21:05:41.862Z,20.90
2018-05-29T21:09:35.004Z,20.90
2018-05-29T21:13:28.142Z,20.80
2018-05-29T21:17:21.715Z,20.70
2018-05-29T21:21:14.871Z,20.70
2018-05-29T21:25:08.023Z,20.60
2018-05-29T21:29:01.920Z,20.50
2018-05-29T21:32:55.796Z,20.50
2018-05-29T21:36:48.984Z,20.50
2018-05-29T21:40:42.193Z,20.50
2018-05-29T21:44:35.320Z,20.40
2018-05-29T21:48:28.433Z,20.30
2018-05-29T21:52:22.349Z,20.30
2018-05-29T21:56:15.479Z,20.30
2018-05-29T22:00:08.337Z,20.20
2018-05-29T22:04:04.023Z,20.20
2018-05-29T22:07:57.194Z,20.20
2018-05-29T22:11:50.315Z,20.20
2018-05-29T22:15:43.453Z,20.20
2018-05-29T22:19:36.963Z,20.20
2018-05-29T22:23:30.085Z,20.20
2018-05-29T22:27:23.197Z,20.20
2018-05-29T22:31:16.328Z,20.10
2018-05-29T22:35:10.264Z,20.10
2018-05-29T22:39:03.407Z,20.00
2018-05-29T22:42:57.410Z,20.00
2018-05-29T22:46:50.547Z,19.90
2018-05-29T22:50:43.672Z,19.80
2018-05-29T22:54:36.787Z,19.80
2018-05-29T22:58:29.942Z,19.80
2018-05-29T23:02:22.933Z,19.90
2018-05-29T23:06:16.052Z,20.00
2018-05-29T23:10:09.962Z,20.10
2018-05-29T23:14:03.054Z,20.10
2018-05-29T23:17:56.170Z,20.20
2018-05-29T23:21:49.345Z,20.20
2018-05-29T23:25:42.464Z,20.10
2018-05-29T23:29:35.546Z,20.10
2018-05-29T23:33:29.712Z,20.20
2018-05-29T23:37:22.893Z,20.20
2018-05-29T23:41:15.996Z,20.30
2018-05-29T23:45:09.099Z,20.30
2018-05-29T23:49:03.004Z,20.20
2018-05-29T23:52:56.137Z,20.20
2018-05-29T23:56:49.240Z,20.10
